createdAt,value
2023-01-19T00:01:05.623Z,18.50
2023-01-19T00:03:35.237Z,16.75
2023-01-19T00:06:07.980Z,15.00
2023-01-19T00:08:37.807Z,18.75
2023-01-19T00:11:08.016Z,17.30
2023-01-19T00:13:40.201Z,15.77
2023-01-19T00:16:10.575Z,16.20
2023-01-19T00:18:40.187Z,14.27
2023-01-19T00:21:09.738Z,15.95
2023-01-19T00:23:39.362Z,17.23
2023-01-19T00:26:10.325Z,19.98
2023-01-19T00:28:42.481Z,15.55
2023-01-19T00:31:12.149Z,13.85
2023-01-19T00:33:41.769Z,16.42
2023-01-19T00:36:12.807Z,12.35
2023-01-19T00:38:42.367Z,16.42
2023-01-19T00:41:11.931Z,15.13
2023-01-19T00:43:41.577Z,17.45
2023-01-19T00:46:11.225Z,15.45
2023-01-19T00:48:40.873Z,15.75
2023-01-19T00:51:10.511Z,16.00
2023-01-19T00:53:40.081Z,13.73
2023-01-19T00:56:10.555Z,18.10
2023-01-19T00:58:40.126Z,16.35
2023-01-19T01:01:12.373Z,15.30
2023-01-19T01:03:42.038Z,15.95
2023-01-19T01:06:11.674Z,18.40
2023-01-19T01:08:41.281Z,14.25
2023-01-19T01:11:10.844Z,15.73
2023-01-19T01:13:40.440Z,13.90
2023-01-19T01:16:12.913Z,13.60
2023-01-19T01:18:42.494Z,13.27
2023-01-19T01:21:15.563Z,17.77
2023-01-19T01:23:45.144Z,15.23
2023-01-19T01:26:14.752Z,17.33
2023-01-19T01:28:44.358Z,16.08
2023-01-19T01:31:16.552Z,14.70
2023-01-19T01:33:46.141Z,18.05
2023-01-19T01:36:15.732Z,12.77
2023-01-19T01:38:45.307Z,14.45
2023-01-19T01:41:15.321Z,14.43
2023-01-19T01:43:48.285Z,13.48
2023-01-19T01:46:20.712Z,14.32
2023-01-19T01:48:53.707Z,18.15
2023-01-19T01:51:27.254Z,13.20
2023-01-19T01:54:06.827Z,18.98
2023-01-19T01:56:39.029Z,16.05
2023-01-19T01:59:10.756Z,12.73
2023-01-19T02:01:55.683Z,12.93
2023-01-19T02:04:26.345Z,14.05
2023-01-19T02:07:08.398Z,15.05
2023-01-19T02:09:52.275Z,13.50
2023-01-19T02:12:34.329Z,13.20
2023-01-19T02:15:04.153Z,12.65
2023-01-19T02:17:36.300Z,12.80
2023-01-19T02:20:06.278Z,14.02
2023-01-19T02:22:39.715Z,12.00
2023-01-19T02:25:12.335Z,12.00
2023-01-19T02:27:41.877Z,11.35
2023-01-19T02:30:13.473Z,13.48
2023-01-19T02:32:43.052Z,12.32
2023-01-19T02:35:13.182Z,13.55
2023-01-19T02:37:43.457Z,12.70
2023-01-19T02:40:19.752Z,11.15
2023-01-19T02:42:51.774Z,11.88
2023-01-19T02:45:24.290Z,12.25
2023-01-19T02:47:55.304Z,13.80
2023-01-19T02:50:41.883Z,15.63
2023-01-19T02:53:43.357Z,11.20
2023-01-19T02:56:32.853Z,11.57
2023-01-19T02:59:05.111Z,14.82
2023-01-19T03:01:43.536Z,12.57
2023-01-19T03:04:18.761Z,14.20
2023-01-19T03:06:51.865Z,15.23
2023-01-19T03:09:29.690Z,12.43
2023-01-19T03:12:05.533Z,14.20
2023-01-19T03:14:36.642Z,11.02
2023-01-19T03:17:08.162Z,11.63
2023-01-19T03:19:40.008Z,14.73
2023-01-19T03:22:13.367Z,12.13
2023-01-19T03:24:45.153Z,11.83
2023-01-19T03:27:19.959Z,13.68
2023-01-19T03:29:52.846Z,14.80
2023-01-19T03:32:25.076Z,10.10
2023-01-19T03:34:56.466Z,15.70
2023-01-19T03:37:27.200Z,14.85
2023-01-19T03:39:57.212Z,15.80
2023-01-19T03:42:30.392Z,12.10
2023-01-19T03:45:01.269Z,12.25
2023-01-19T03:47:31.428Z,11.10
2023-01-19T03:50:01.377Z,15.27
2023-01-19T03:52:33.201Z,10.98
2023-01-19T03:55:03.878Z,12.80
2023-01-19T03:57:36.034Z,11.85
2023-01-19T04:00:06.714Z,10.10
2023-01-19T04:02:41.602Z,10.48
2023-01-19T04:05:12.729Z,12.45
2023-01-19T04:07:42.283Z,13.65
2023-01-19T04:10:13.381Z,16.77
2023-01-19T04:12:45.548Z,12.07
2023-01-19T04:15:15.441Z,12.15
2023-01-19T04:17:45.011Z,13.10
2023-01-19T04:20:15.011Z,11.93
2023-01-19T04:22:44.716Z,11.10
2023-01-19T04:25:14.283Z,15.40
2023-01-19T04:27:46.400Z,12.50
2023-01-19T04:30:16.927Z,14.32
2023-01-19T04:32:46.936Z,11.13
2023-01-19T04:35:17.029Z,23.92
2023-01-19T04:37:47.537Z,13.48
2023-01-19T04:40:17.346Z,12.57
2023-01-19T04:42:49.722Z,12.60
2023-01-19T04:45:19.729Z,11.98
2023-01-19T04:47:49.303Z,11.23
2023-01-19T04:50:19.307Z,16.63
2023-01-19T04:52:49.113Z,13.15
2023-01-19T04:55:19.846Z,15.45
2023-01-19T04:57:51.981Z,17.98
2023-01-19T05:00:22.178Z,13.10
2023-01-19T05:02:51.839Z,16.17
2023-01-19T05:05:21.447Z,13.65
2023-01-19T05:07:51.058Z,17.48
2023-01-19T05:10:20.761Z,16.55
2023-01-19T05:12:52.998Z,15.23
2023-01-19T05:15:22.617Z,14.98
2023-01-19T05:17:52.908Z,14.85
2023-01-19T05:20:22.595Z,18.77
2023-01-19T05:22:53.423Z,15.90
2023-01-19T05:25:23.017Z,17.42
2023-01-19T05:27:55.173Z,15.30
2023-01-19T05:30:24.736Z,16.83
2023-01-19T05:32:54.306Z,23.90
2023-01-19T05:35:35.429Z,16.98
2023-01-19T05:38:05.515Z,27.63
2023-01-19T05:40:35.146Z,22.42
2023-01-19T05:43:07.401Z,24.48
2023-01-19T05:45:38.879Z,27.70
2023-01-19T05:48:09.506Z,21.70
2023-01-19T05:50:39.890Z,27.33
2023-01-19T05:53:09.438Z,22.50
2023-01-19T05:55:39.137Z,24.60
2023-01-19T05:58:11.343Z,26.52
2023-01-19T06:00:40.901Z,25.40
2023-01-19T06:03:10.467Z,25.80
2023-01-19T06:05:40.039Z,24.65
2023-01-19T06:08:09.581Z,28.33
2023-01-19T06:10:39.544Z,37.75
2023-01-19T06:13:12.184Z,33.38
2023-01-19T06:15:43.043Z,22.10
2023-01-19T06:18:12.628Z,25.73
2023-01-19T06:20:42.250Z,29.52
2023-01-19T06:23:11.792Z,25.20
2023-01-19T06:25:41.466Z,22.45
2023-01-19T06:28:13.734Z,28.52
2023-01-19T06:30:43.713Z,30.08
2023-01-19T06:33:13.375Z,23.80
2023-01-19T06:35:45.881Z,23.77
2023-01-19T06:38:17.187Z,25.20
2023-01-19T06:40:47.075Z,22.55
2023-01-19T06:43:20.324Z,23.77
2023-01-19T06:45:50.304Z,22.80
2023-01-19T06:48:20.510Z,21.92
2023-01-19T06:50:50.437Z,23.80
2023-01-19T06:53:22.269Z,20.45
2023-01-19T06:55:51.883Z,21.70
2023-01-19T06:58:24.326Z,21.55
2023-01-19T07:00:53.990Z,19.27
2023-01-19T07:03:25.977Z,19.15
2023-01-19T07:05:57.089Z,18.98
2023-01-19T07:08:27.137Z,21.98
2023-01-19T07:11:22.266Z,20.52
2023-01-19T07:13:57.045Z,21.00
2023-01-19T07:16:26.772Z,22.17
2023-01-19T07:18:56.483Z,24.23
2023-01-19T07:21:28.961Z,22.75
2023-01-19T07:23:59.104Z,21.33
2023-01-19T07:26:28.719Z,23.48
2023-01-19T07:29:00.834Z,25.65
2023-01-19T07:31:30.557Z,23.48
2023-01-19T07:34:00.697Z,23.73
2023-01-19T07:36:30.423Z,26.52
2023-01-19T07:39:00.171Z,25.52
2023-01-19T07:41:29.717Z,25.50
2023-01-19T07:44:01.888Z,23.00
2023-01-19T07:46:31.462Z,25.27
2023-01-19T07:49:01.002Z,25.83
2023-01-19T07:51:30.631Z,27.95
2023-01-19T07:54:00.241Z,30.80
2023-01-19T07:56:33.607Z,30.63
2023-01-19T07:59:07.442Z,26.90
2023-01-19T08:01:37.771Z,29.42
2023-01-19T08:04:07.840Z,24.02
2023-01-19T08:06:39.252Z,27.83
2023-01-19T08:09:10.069Z,28.60
2023-01-19T08:11:39.696Z,27.67
2023-01-19T08:14:12.729Z,24.92
2023-01-19T08:16:42.304Z,27.20
2023-01-19T08:19:11.868Z,28.73
2023-01-19T08:21:41.562Z,23.25
2023-01-19T08:24:21.432Z,22.08
2023-01-19T08:26:53.096Z,23.30
2023-01-19T08:29:25.237Z,21.95
2023-01-19T08:31:57.467Z,24.00
2023-01-19T08:34:27.331Z,25.95
2023-01-19T08:36:56.939Z,30.98
2023-01-19T08:39:27.419Z,30.27
2023-01-19T08:41:58.194Z,30.75
2023-01-19T08:44:30.407Z,27.33
2023-01-19T08:47:00.033Z,22.48
2023-01-19T08:49:29.589Z,20.08
2023-01-19T08:51:59.123Z,21.90
2023-01-19T08:54:28.694Z,24.05
2023-01-19T08:56:58.494Z,20.27
2023-01-19T08:59:30.643Z,20.45
2023-01-19T09:02:00.430Z,22.65
2023-01-19T09:04:30.044Z,21.92
2023-01-19T09:06:59.635Z,19.30
2023-01-19T09:09:29.189Z,24.60
2023-01-19T09:11:58.861Z,20.08
2023-01-19T09:14:31.064Z,23.00
2023-01-19T09:17:00.660Z,20.92
2023-01-19T09:19:30.665Z,29.80
2023-01-19T09:22:00.470Z,26.30
2023-01-19T09:24:30.018Z,23.33
2023-01-19T09:26:59.584Z,22.80
2023-01-19T09:29:31.744Z,25.92
2023-01-19T09:32:01.336Z,27.67
2023-01-19T09:34:31.456Z,26.92
2023-01-19T09:37:01.042Z,34.03
2023-01-19T09:39:30.717Z,30.55
2023-01-19T09:42:05.987Z,28.15
2023-01-19T09:44:38.541Z,32.90
2023-01-19T09:47:17.147Z,26.95
2023-01-19T09:49:49.439Z,28.50
2023-01-19T09:52:20.473Z,31.60
2023-01-19T09:54:54.994Z,31.50
2023-01-19T09:57:25.133Z,33.30
2023-01-19T09:59:59.778Z,29.55
2023-01-19T10:02:37.244Z,31.92
2023-01-19T10:05:08.541Z,27.30
2023-01-19T10:07:58.430Z,31.23
2023-01-19T10:10:29.410Z,29.90
2023-01-19T10:13:06.882Z,28.95
2023-01-19T10:15:48.055Z,33.75
2023-01-19T10:18:21.764Z,31.25
2023-01-19T10:20:53.675Z,29.95
2023-01-19T10:23:38.206Z,29.92
2023-01-19T10:26:12.378Z,35.20
2023-01-19T10:31:14.555Z,45.35
2023-01-19T10:33:44.225Z,43.20
2023-01-19T10:36:21.174Z,39.65
2023-01-19T10:38:52.009Z,33.30
2023-01-19T10:41:24.322Z,37.55
2023-01-19T10:44:02.409Z,35.80
2023-01-19T10:46:40.297Z,32.08
2023-01-19T10:49:10.137Z,33.88
2023-01-19T10:51:49.481Z,33.15
2023-01-19T10:54:19.321Z,35.00
2023-01-19T10:56:54.101Z,38.80
2023-01-19T10:59:35.778Z,41.38
2023-01-19T11:02:17.891Z,34.28
2023-01-19T11:04:50.216Z,42.50
2023-01-19T11:07:23.282Z,35.33
2023-01-19T11:09:53.203Z,37.53
2023-01-19T11:12:25.054Z,57.47
2023-01-19T11:14:54.657Z,38.13
2023-01-19T11:17:28.059Z,36.03
2023-01-19T11:20:02.748Z,39.38
2023-01-19T11:22:34.354Z,39.80
2023-01-19T11:25:06.642Z,39.83
2023-01-19T11:27:39.144Z,40.33
2023-01-19T11:30:12.681Z,32.63
2023-01-19T11:32:44.822Z,37.10
2023-01-19T11:35:36.609Z,32.75
2023-01-19T11:38:20.152Z,43.15
2023-01-19T11:40:55.192Z,38.97
2023-01-19T11:43:30.173Z,37.97
2023-01-19T11:46:03.797Z,37.85
2023-01-19T11:48:40.019Z,37.17
2023-01-19T11:51:15.072Z,26.95
2023-01-19T11:53:46.466Z,35.85
2023-01-19T11:56:17.414Z,34.20
2023-01-19T11:58:48.784Z,37.33
2023-01-19T12:01:24.919Z,30.38
2023-01-19T12:04:01.219Z,37.20
2023-01-19T12:06:34.226Z,36.85
2023-01-19T12:09:06.790Z,40.90
2023-01-19T12:11:40.305Z,38.38
2023-01-19T12:14:17.109Z,35.95
2023-01-19T12:16:47.110Z,41.90
2023-01-19T12:19:21.776Z,35.17
2023-01-19T12:21:52.571Z,36.10
2023-01-19T12:24:29.078Z,37.30
2023-01-19T12:26:59.996Z,34.95
2023-01-19T12:29:32.235Z,33.35
2023-01-19T12:32:20.265Z,37.25
2023-01-19T12:34:53.218Z,39.28
2023-01-19T12:37:37.363Z,40.03
2023-01-19T12:40:21.952Z,36.35
2023-01-19T12:42:57.097Z,32.08
2023-01-19T12:45:28.314Z,41.63
2023-01-19T12:47:58.707Z,31.55
2023-01-19T12:50:35.000Z,32.30
2023-01-19T12:53:08.341Z,34.72
2023-01-19T12:55:46.576Z,29.77
2023-01-19T12:58:18.818Z,36.20
2023-01-19T13:00:50.191Z,37.17
2023-01-19T13:04:00.598Z,34.15
2023-01-19T13:07:04.765Z,41.33
2023-01-19T13:09:37.891Z,42.10
2023-01-19T13:12:23.799Z,33.90
2023-01-19T13:14:53.501Z,40.03
2023-01-19T13:17:33.549Z,32.65
2023-01-19T13:20:07.068Z,38.55
2023-01-19T13:23:16.572Z,42.97
2023-01-19T13:25:50.845Z,34.35
2023-01-19T13:30:57.766Z,35.05
2023-01-19T13:33:29.755Z,38.72
2023-01-19T13:36:00.015Z,33.05
2023-01-19T13:38:32.906Z,35.08
2023-01-19T13:41:05.740Z,34.08
2023-01-19T13:43:37.582Z,36.63
2023-01-19T13:46:07.759Z,32.08
2023-01-19T13:48:37.400Z,33.33
2023-01-19T13:51:08.919Z,33.10
2023-01-19T13:53:38.515Z,33.63
2023-01-19T13:56:23.538Z,39.42
2023-01-19T13:59:05.104Z,32.85
2023-01-19T14:01:34.859Z,32.15
2023-01-19T14:04:04.702Z,29.50
2023-01-19T14:06:42.418Z,34.75
2023-01-19T14:09:19.323Z,26.05
2023-01-19T14:12:09.107Z,30.88
2023-01-19T14:14:38.877Z,32.17
2023-01-19T14:17:23.987Z,35.33
2023-01-19T14:19:55.438Z,27.80
2023-01-19T14:22:40.547Z,33.80
2023-01-19T14:25:34.408Z,28.48
2023-01-19T14:28:39.429Z,28.02
2023-01-19T14:31:22.794Z,34.17
2023-01-19T14:33:54.075Z,32.08
2023-01-19T14:36:39.243Z,27.40
2023-01-19T14:39:16.936Z,28.55
2023-01-19T14:41:49.187Z,26.60
2023-01-19T14:44:24.057Z,30.38
2023-01-19T14:46:53.667Z,29.55
2023-01-19T14:49:25.468Z,26.60
2023-01-19T14:51:56.079Z,23.25
2023-01-19T14:54:40.758Z,25.33
2023-01-19T14:57:14.223Z,25.70
2023-01-19T14:59:49.558Z,25.27
2023-01-19T15:02:19.493Z,22.88
2023-01-19T15:04:51.496Z,22.98
2023-01-19T15:07:21.799Z,25.83
2023-01-19T15:09:51.621Z,25.02
2023-01-19T15:12:24.048Z,24.38
2023-01-19T15:14:56.309Z,26.60
2023-01-19T15:17:27.902Z,24.52
2023-01-19T15:19:59.321Z,29.70
2023-01-19T15:22:30.023Z,23.20
2023-01-19T15:25:00.343Z,25.42
2023-01-19T15:27:30.114Z,22.17
2023-01-19T15:30:02.307Z,19.25
2023-01-19T15:32:31.867Z,23.13
2023-01-19T15:35:01.429Z,23.02
2023-01-19T15:37:33.029Z,22.08
2023-01-19T15:40:02.580Z,24.10
2023-01-19T15:42:33.348Z,21.52
2023-01-19T15:45:05.612Z,28.15
2023-01-19T15:47:35.185Z,28.67
2023-01-19T15:50:04.737Z,25.77
2023-01-19T15:52:34.333Z,22.63
2023-01-19T15:55:03.858Z,26.65
2023-01-19T15:57:35.096Z,40.63
2023-01-19T16:00:08.191Z,32.90
2023-01-19T16:02:40.056Z,24.60
2023-01-19T16:05:10.715Z,25.25
2023-01-19T16:07:40.529Z,30.15
2023-01-19T16:10:10.745Z,27.08
2023-01-19T16:12:40.505Z,30.88
2023-01-19T16:15:14.005Z,30.10
2023-01-19T16:17:43.559Z,28.13
2023-01-19T16:20:14.941Z,30.02
2023-01-19T16:22:44.651Z,27.92
2023-01-19T16:25:14.644Z,35.65
2023-01-19T16:27:44.193Z,28.70
2023-01-19T16:30:19.418Z,30.35
2023-01-19T16:32:49.353Z,29.90
2023-01-19T16:35:19.013Z,35.33
2023-01-19T16:37:53.018Z,28.35
2023-01-19T16:40:22.812Z,30.42
2023-01-19T16:42:52.409Z,36.22
2023-01-19T16:45:24.543Z,29.38
2023-01-19T16:47:54.152Z,34.70
2023-01-19T16:50:23.761Z,37.78
2023-01-19T16:52:53.320Z,27.83
2023-01-19T16:55:22.859Z,32.40
2023-01-19T16:57:52.633Z,32.63
2023-01-19T17:00:24.982Z,27.25
2023-01-19T17:02:54.607Z,28.75
2023-01-19T17:05:24.226Z,36.25
2023-01-19T17:07:53.809Z,31.17
2023-01-19T17:10:23.582Z,36.50
2023-01-19T17:12:53.132Z,35.28
2023-01-19T17:15:25.429Z,28.52
2023-01-19T17:17:54.995Z,28.52
2023-01-19T17:20:24.539Z,28.40
2023-01-19T17:22:54.562Z,25.95
2023-01-19T17:25:24.129Z,26.40
2023-01-19T17:27:53.723Z,26.77
2023-01-19T17:30:26.024Z,30.50
2023-01-19T17:32:55.677Z,27.48
2023-01-19T17:35:25.242Z,27.13
2023-01-19T17:37:56.906Z,43.60
2023-01-19T17:40:27.309Z,41.75
2023-01-19T17:42:56.896Z,40.88
2023-01-19T17:45:29.025Z,32.50
2023-01-19T17:47:58.627Z,26.70
2023-01-19T17:50:28.233Z,24.17
2023-01-19T17:52:58.357Z,28.65
2023-01-19T17:55:27.971Z,25.30
2023-01-19T17:58:00.223Z,22.77
2023-01-19T18:00:32.695Z,28.10
2023-01-19T18:03:02.378Z,25.35
2023-01-19T18:05:32.010Z,21.80
2023-01-19T18:08:01.835Z,26.92
2023-01-19T18:10:31.388Z,25.30
2023-01-19T18:13:00.955Z,26.15
2023-01-19T18:15:33.132Z,29.75
2023-01-19T18:18:02.722Z,43.63
2023-01-19T18:20:32.355Z,36.45
2023-01-19T18:23:01.930Z,34.85
2023-01-19T18:25:31.546Z,37.25
2023-01-19T18:28:01.217Z,32.75
2023-01-19T18:30:33.430Z,36.90
2023-01-19T18:33:03.102Z,38.78
2023-01-19T18:35:32.704Z,47.72
2023-01-19T18:38:02.319Z,41.88
2023-01-19T18:40:31.933Z,33.75
2023-01-19T18:43:01.487Z,39.53
2023-01-19T18:45:33.617Z,32.38
2023-01-19T18:48:03.688Z,33.20
2023-01-19T18:50:33.440Z,32.97
2023-01-19T18:53:03.017Z,34.60
2023-01-19T18:55:32.598Z,36.15
2023-01-19T18:58:04.173Z,34.45
2023-01-19T19:00:36.369Z,31.83
2023-01-19T19:03:10.272Z,29.20
2023-01-19T19:05:39.947Z,31.20
2023-01-19T19:08:09.943Z,30.95
2023-01-19T19:10:39.517Z,32.78
2023-01-19T19:13:09.168Z,29.45
2023-01-19T19:15:41.553Z,27.48
2023-01-19T19:18:13.203Z,26.48
2023-01-19T19:20:43.471Z,30.98
2023-01-19T19:23:13.879Z,31.38
2023-01-19T19:25:43.475Z,31.40
2023-01-19T19:28:13.056Z,30.25
2023-01-19T19:30:46.597Z,34.33
2023-01-19T19:33:16.341Z,34.47
2023-01-19T19:35:45.975Z,35.03
2023-01-19T19:38:15.535Z,35.22
2023-01-19T19:40:45.088Z,29.83
2023-01-19T19:43:14.715Z,31.05
2023-01-19T19:45:46.837Z,41.10
2023-01-19T19:48:16.446Z,29.48
2023-01-19T19:50:46.263Z,36.97
2023-01-19T19:53:15.829Z,35.08
2023-01-19T19:55:45.382Z,32.30
2023-01-19T19:58:14.959Z,35.75
2023-01-19T20:00:47.846Z,32.28
2023-01-19T20:03:17.458Z,32.47
2023-01-19T20:05:47.221Z,31.00
2023-01-19T20:08:16.921Z,31.65
2023-01-19T20:10:46.488Z,29.75
2023-01-19T20:13:19.263Z,24.23
2023-01-19T20:15:52.595Z,32.08
2023-01-19T20:18:22.180Z,34.23
2023-01-19T20:20:51.720Z,23.85
2023-01-19T20:23:21.317Z,27.33
2023-01-19T20:25:50.907Z,40.00
2023-01-19T20:28:20.574Z,30.00
2023-01-19T20:30:54.741Z,31.50
2023-01-19T20:35:54.222Z,39.47
2023-01-19T20:38:23.790Z,28.80
2023-01-19T20:40:53.367Z,28.25
2023-01-19T20:43:23.007Z,27.08
2023-01-19T20:45:55.292Z,31.27
2023-01-19T20:48:24.943Z,26.50
2023-01-19T20:51:00.428Z,28.05
2023-01-19T20:53:30.700Z,26.52
2023-01-19T20:56:00.261Z,25.45
2023-01-19T20:58:31.324Z,27.55
2023-01-19T21:01:03.550Z,23.92
2023-01-19T21:03:34.816Z,21.77
2023-01-19T21:06:04.354Z,24.20
2023-01-19T21:08:33.944Z,21.50
2023-01-19T21:11:03.784Z,24.90
2023-01-19T21:13:33.401Z,23.35
2023-01-19T21:16:06.437Z,28.80
2023-01-19T21:18:36.208Z,27.13
2023-01-19T21:21:05.827Z,25.85
2023-01-19T21:23:35.834Z,26.77
2023-01-19T21:26:06.949Z,28.52
2023-01-19T21:28:36.583Z,25.98
2023-01-19T21:31:12.914Z,29.92
2023-01-19T21:33:42.975Z,40.70
2023-01-19T21:36:13.536Z,36.67
2023-01-19T21:38:43.128Z,35.97
2023-01-19T21:41:16.266Z,31.17
2023-01-19T21:43:46.324Z,34.03
2023-01-19T21:46:21.317Z,33.25
2023-01-19T21:48:51.238Z,29.60
2023-01-19T21:51:20.826Z,31.45
2023-01-19T21:53:52.375Z,46.33
2023-01-19T21:56:22.533Z,30.38
2023-01-19T21:58:52.088Z,26.02
2023-01-19T22:01:24.548Z,28.52
2023-01-19T22:03:56.443Z,29.95
2023-01-19T22:06:27.059Z,26.58
2023-01-19T22:08:57.964Z,31.50
2023-01-19T22:11:27.680Z,26.10
2023-01-19T22:13:59.632Z,26.60
2023-01-19T22:16:32.313Z,27.67
2023-01-19T22:19:03.667Z,28.55
2023-01-19T22:21:35.583Z,25.27
2023-01-19T22:24:06.918Z,25.35
2023-01-19T22:26:36.997Z,23.85
2023-01-19T22:29:11.094Z,23.40
2023-01-19T22:31:43.436Z,20.90
2023-01-19T22:34:13.701Z,27.85
2023-01-19T22:36:43.259Z,26.85
2023-01-19T22:39:14.708Z,22.98
2023-01-19T22:41:45.610Z,24.05
2023-01-19T22:44:16.970Z,27.48
2023-01-19T22:46:49.880Z,23.75
2023-01-19T22:49:20.853Z,23.33
2023-01-19T22:51:50.453Z,23.85
2023-01-19T22:54:21.315Z,19.85
2023-01-19T22:56:51.023Z,23.33
2023-01-19T22:59:20.591Z,29.08
2023-01-19T23:01:52.888Z,21.85
2023-01-19T23:04:22.709Z,25.05
2023-01-19T23:06:53.883Z,26.08
2023-01-19T23:09:23.455Z,24.80
2023-01-19T23:11:53.030Z,32.47
2023-01-19T23:14:24.492Z,26.75
2023-01-19T23:16:56.618Z,26.48
2023-01-19T23:19:26.221Z,29.42
2023-01-19T23:21:56.076Z,30.25
2023-01-19T23:24:25.670Z,26.42
2023-01-19T23:26:55.258Z,27.05
2023-01-19T23:29:24.866Z,32.10
2023-01-19T23:31:57.089Z,26.23
2023-01-19T23:34:26.668Z,27.05
2023-01-19T23:36:56.409Z,29.88
2023-01-19T23:39:25.959Z,31.30
2023-01-19T23:41:55.527Z,31.02
2023-01-19T23:44:25.085Z,26.20
2023-01-19T23:46:58.008Z,34.58
2023-01-19T23:49:27.895Z,27.90
2023-01-19T23:51:57.478Z,33.42
2023-01-19T23:54:27.139Z,30.42
2023-01-19T23:56:56.701Z,31.38
2023-01-19T23:59:26.266Z,25.85
